Time;durP1;ratioP1;P1;durP2;ratioP2;P2;SDS_P1;SDS_P2;PMS_P1;PMS_P2;Temp;Humidity;BMP_temperature;BMP_pressure;BME280_temperature;BME280_humidity;BME280_pressure;Samples;Min_cycle;Max_cycle;Signal;HPM_P1;HPM_P2
2021/12/21 00:02:00;;;;;;;;;;;;;;;-144.99;100.00;52727.34;5056025;28;20150;-72
2021/12/21 00:04:27;;;;;;;;;;;;;;;-144.99;100.00;52709.00;5053281;28;19983;-72
2021/12/21 00:06:54;;;;;;;;;;;;;;;-144.99;100.00;52686.59;5057232;28;19973;-72
2021/12/21 00:09:20;;;;;;;;;;;;;;;-144.99;100.00;52721.22;5049553;28;19999;-72
2021/12/21 00:11:48;;;;;;;;;;;;;;;-144.99;100.00;52698.81;5059635;28;19980;-73
2021/12/21 00:14:22;;;;;;;;;;;;;;;-144.99;100.00;52704.94;5059383;28;20095;-72
2021/12/21 00:17:06;;;;;;;;;;;;;;;-144.99;100.00;52713.09;5059356;28;19973;-71
2021/12/21 00:19:53;;;;;;;;;;;;;;;-144.99;100.00;52713.09;5066104;28;19993;-73
2021/12/21 00:25:07;;;;;;;;;;;;;;;-144.99;100.00;52717.16;5032148;28;19978;-72
2021/12/21 00:27:34;;;;;;;;;;;;;;;-144.99;100.00;52704.94;5080557;28;19951;-71
2021/12/21 00:30:00;;;;;;;;;;;;;;;-144.99;100.00;52713.09;5072931;28;20408;-71
2021/12/21 00:32:27;;;;;;;;;;;;;;;-144.99;100.00;52733.47;5065519;28;19972;-72
2021/12/21 00:34:54;;;;;;;;;;;;;;;-144.99;100.00;52741.63;5072361;28;20068;-72
2021/12/21 00:37:22;;;;;;;;;;;;;;;-144.99;100.00;52753.84;5071854;28;19987;-73
2021/12/21 00:39:49;;;;;;;;;;;;;;;-144.99;100.00;52709.00;5075576;28;20086;-73
2021/12/21 00:42:15;;;;;;;;;;;;;;;-144.99;100.00;52713.09;5077934;28;19996;-73
2021/12/21 00:44:41;;;;;;;;;;;;;;;-144.99;100.00;52729.38;5080462;28;19973;-72
2021/12/21 00:47:08;;;;;;;;;;;;;;;-144.99;100.00;52680.47;5080541;28;20004;-72
2021/12/21 00:49:35;;;;;;;;;;;;;;;-144.99;100.00;52721.22;5079607;28;20003;-73
2021/12/21 00:52:02;;;;;;;;;;;;;;;-144.99;100.00;52743.66;5073716;28;20040;-72
2021/12/21 00:54:29;;;;;;;;;;;;;;;-144.99;100.00;52704.94;5081982;28;19973;-71
2021/12/21 00:56:56;;;;;;;;;;;;;;;-144.99;100.00;52704.94;5078312;28;19984;-72
2021/12/21 00:59:22;;;;;;;;;;;;;;;-144.99;100.00;52688.63;5071352;28;20001;-72
2021/12/21 01:01:49;;;;;;;;;;;;;;;-144.99;100.00;52696.78;5055234;28;19973;-71
2021/12/21 01:04:22;;;;;;;;;;;;;;;-144.99;100.00;52713.09;5054778;28;19977;-71
2021/12/21 01:07:00;;;;;;;;;;;;;;;-144.99;100.00;52692.69;5052511;28;19973;-71
2021/12/21 01:09:51;;;;;;;;;;;;;;;-144.99;100.00;52696.78;5069543;22;19996;-80
2021/12/21 01:12:33;;;;;;;;;;;;;;;-144.99;100.00;52721.22;5057887;28;19985;-79
2021/12/21 01:15:10;;;;;;;;;;;;;;;-144.99;100.00;52709.00;5065152;28;19977;-79
2021/12/21 01:17:49;;;;;;;;;;;;;;;-144.99;100.00;52692.69;5063175;28;20034;-77
2021/12/21 01:20:27;;;;;;;;;;;;;;;-144.99;100.00;52690.66;5062618;28;20408;-79
2021/12/21 01:23:11;;;;;;;;;;;;;;;-144.99;100.00;52676.38;5063564;28;20028;-77
2021/12/21 01:25:44;;;;;;;;;;;;;;;-144.99;100.00;52717.16;5068262;28;20022;-77
2021/12/21 01:28:18;;;;;;;;;;;;;;;-144.99;100.00;52706.97;5063081;28;19977;-80
2021/12/21 01:30:52;;;;;;;;;;;;;;;-144.99;100.00;52688.63;5054456;28;20044;-80
2021/12/21 01:33:33;;;;;;;;;;;;;;;-144.99;100.00;52735.50;5050603;28;19981;-78
2021/12/21 01:36:02;;;;;;;;;;;;;;;-144.99;100.00;52696.78;5053754;28;20453;-81
2021/12/21 01:38:36;;;;;;;;;;;;;;;-144.99;100.00;52717.16;5049927;28;20009;-80
2021/12/21 01:41:08;;;;;;;;;;;;;;;-144.99;100.00;52660.09;5053272;28;19977;-79
2021/12/21 01:43:41;;;;;;;;;;;;;;;-144.99;100.00;52713.09;5048851;28;20184;-81
2021/12/21 01:51:46;;;;;;;;;;;;;;;-144.99;100.00;52700.84;5047493;28;20039;-78
2021/12/21 01:54:13;;;;;;;;;;;;;;;-144.99;100.00;52704.94;5050230;28;20055;-76
2021/12/21 01:56:39;;;;;;;;;;;;;;;-144.99;100.00;52688.63;5059408;28;19973;-77
2021/12/21 01:59:09;;;;;;;;;;;;;;;-144.99;100.00;52676.38;5053477;28;20005;-80
2021/12/21 02:01:35;;;;;;;;;;;;;;;-144.99;100.00;52700.84;5053873;28;19956;-79
2021/12/21 02:04:02;;;;;;;;;;;;;;;-144.99;100.00;52709.00;5049454;28;20499;-81
2021/12/21 02:06:29;;;;;;;;;;;;;;;-144.99;100.00;52696.78;5057007;28;19977;-79
2021/12/21 02:08:57;;;;;;;;;;;;;;;-144.99;100.00;52692.69;5047154;28;22434;-77
2021/12/21 02:11:24;;;;;;;;;;;;;;;-144.99;100.00;52668.22;5053973;28;20000;-80
2021/12/21 02:13:51;;;;;;;;;;;;;;;-144.99;100.00;52684.53;5054151;28;19973;-81
2021/12/21 02:16:26;;;;;;;;;;;;;;;-144.99;100.00;52700.84;5046920;28;19977;-79
2021/12/21 02:18:58;;;;;;;;;;;;;;;-144.99;100.00;52721.22;5051129;28;20118;-79
2021/12/21 02:21:31;;;;;;;;;;;;;;;-144.99;100.00;52676.38;5050981;28;19981;-79
2021/12/21 02:24:02;;;;;;;;;;;;;;;-144.99;100.00;52672.31;5053901;28;20362;-77
2021/12/21 02:29:18;;;;;;;;;;;;;;;-144.99;100.00;52704.94;5053497;28;20512;-78
2021/12/21 02:31:47;;;;;;;;;;;;;;;-144.99;100.00;52668.22;5052560;28;20359;-80
2021/12/21 02:34:13;;;;;;;;;;;;;;;-144.99;100.00;52698.81;5053057;28;19977;-79
2021/12/21 02:36:42;;;;;;;;;;;;;;;-144.99;100.00;52721.22;5063818;28;19991;-80
2021/12/21 02:39:09;;;;;;;;;;;;;;;-144.99;100.00;52721.22;5057776;28;20004;-77
2021/12/21 02:41:36;;;;;;;;;;;;;;;-144.99;100.00;52700.84;5071916;28;20083;-83
2021/12/21 02:44:02;;;;;;;;;;;;;;;-144.99;100.00;52741.63;5064227;28;20074;-81
2021/12/21 02:46:29;;;;;;;;;;;;;;;-144.99;100.00;52702.88;5067389;28;19987;-78
2021/12/21 02:48:56;;;;;;;;;;;;;;;-144.99;100.00;52717.16;5063834;28;19973;-79
2021/12/21 02:51:22;;;;;;;;;;;;;;;-144.99;100.00;52696.78;5068123;28;20330;-79
2021/12/21 02:53:50;;;;;;;;;;;;;;;-144.99;100.00;52729.38;5057082;28;19988;-79
2021/12/21 02:56:17;;;;;;;;;;;;;;;-144.99;100.00;52700.84;5051013;28;20056;-83
2021/12/21 02:58:43;;;;;;;;;;;;;;;-144.99;100.00;52711.03;5058586;28;20378;-82
2021/12/21 03:01:11;;;;;;;;;;;;;;;-144.99;100.00;52723.28;5060150;28;20572;-78
2021/12/21 03:03:38;;;;;;;;;;;;;;;-144.99;100.00;52696.78;5050295;28;19987;-78
2021/12/21 03:06:09;;;;;;;;;;;;;;;-144.99;100.00;52711.03;5056668;28;19973;-80
2021/12/21 03:08:39;;;;;;;;;;;;;;;-144.99;100.00;52684.53;5056312;28;19979;-81
2021/12/21 03:11:14;;;;;;;;;;;;;;;-144.99;100.00;52670.28;5055703;28;20379;-80
2021/12/21 03:16:24;;;;;;;;;;;;;;;-144.99;100.00;52688.63;5057784;28;20000;-76
2021/12/21 03:18:52;;;;;;;;;;;;;;;-144.99;100.00;52660.09;5055497;28;20541;-77
2021/12/21 03:21:19;;;;;;;;;;;;;;;-144.99;100.00;52729.38;5054458;28;19996;-78
2021/12/21 03:23:45;;;;;;;;;;;;;;;-144.99;100.00;52680.47;5053373;28;19977;-76
2021/12/21 03:26:12;;;;;;;;;;;;;;;-144.99;100.00;52704.94;5059645;28;19980;-79
2021/12/21 03:28:39;;;;;;;;;;;;;;;-144.99;100.00;52684.53;5061363;28;20526;-79
2021/12/21 03:31:06;;;;;;;;;;;;;;;-144.99;100.00;52704.94;5058689;28;19974;-80
2021/12/21 03:33:32;;;;;;;;;;;;;;;-144.99;100.00;52725.31;5053271;28;19973;-78
2021/12/21 03:36:00;;;;;;;;;;;;;;;-144.99;100.00;52717.16;5059239;28;19996;-80
2021/12/21 03:38:27;;;;;;;;;;;;;;;-144.99;100.00;52680.47;5054375;28;19987;-76
2021/12/21 03:41:01;;;;;;;;;;;;;;;-144.99;100.00;52700.84;5060345;28;19997;-81
2021/12/21 03:43:29;;;;;;;;;;;;;;;-144.99;100.00;52717.16;5064327;28;19956;-82
2021/12/21 03:46:04;;;;;;;;;;;;;;;-144.99;100.00;52684.53;5052969;28;19973;-80
2021/12/21 03:48:30;;;;;;;;;;;;;;;-144.99;100.00;52713.09;5060910;28;19977;-79
2021/12/21 03:50:56;;;;;;;;;;;;;;;-144.99;100.00;52700.84;5047169;28;20515;-80
2021/12/21 03:53:23;;;;;;;;;;;;;;;-144.99;100.00;52700.84;5053834;28;19978;-78
2021/12/21 03:55:58;;;;;;;;;;;;;;;-144.99;100.00;52713.09;5058625;28;19981;-80
2021/12/21 03:58:25;;;;;;;;;;;;;;;-144.99;100.00;52709.00;5064399;28;19973;-80
2021/12/21 04:00:52;;;;;;;;;;;;;;;-144.99;100.00;52680.47;5067184;28;20052;-81
2021/12/21 04:03:19;;;;;;;;;;;;;;;-144.99;100.00;52643.78;5065538;28;19973;-78
2021/12/21 04:05:45;;;;;;;;;;;;;;;-144.99;100.00;52706.97;5060305;28;19973;-80
2021/12/21 04:08:11;;;;;;;;;;;;;;;-144.99;100.00;52680.47;5053125;28;20218;-79
2021/12/21 04:10:38;;;;;;;;;;;;;;;-144.99;100.00;52684.53;5051117;28;19997;-80
2021/12/21 04:13:04;;;;;;;;;;;;;;;-144.99;100.00;52692.69;5054401;28;20416;-77
2021/12/21 04:15:38;;;;;;;;;;;;;;;-144.99;100.00;52709.00;5054925;28;20445;-78
2021/12/21 04:18:06;;;;;;;;;;;;;;;-144.99;100.00;52713.09;5059922;28;20030;-78
2021/12/21 04:20:32;;;;;;;;;;;;;;;-144.99;100.00;52684.53;5053366;28;20000;-79
2021/12/21 04:22:59;;;;;;;;;;;;;;;-144.99;100.00;52700.84;5055946;28;19974;-82
2021/12/21 04:25:25;;;;;;;;;;;;;;;-144.99;100.00;52676.38;5054712;28;19995;-79
2021/12/21 04:27:51;;;;;;;;;;;;;;;-144.99;100.00;52684.53;5053141;28;19973;-81
2021/12/21 04:30:18;;;;;;;;;;;;;;;-144.99;100.00;52660.09;5056826;28;19993;-81
2021/12/21 04:32:44;;;;;;;;;;;;;;;-144.99;100.00;52733.47;5057429;28;20086;-81
2021/12/21 04:35:12;;;;;;;;;;;;;;;-144.99;100.00;52700.84;5059225;28;19977;-79
2021/12/21 04:37:43;;;;;;;;;;;;;;;-144.99;100.00;52704.94;5057980;28;20020;-83
2021/12/21 04:40:15;;;;;;;;;;;;;;;-144.99;100.00;52711.03;5051252;28;20008;-79
2021/12/21 04:42:42;;;;;;;;;;;;;;;-144.99;100.00;52721.22;5055162;28;19973;-80
2021/12/21 04:45:08;;;;;;;;;;;;;;;-144.99;100.00;52709.00;5052750;28;20460;-78
2021/12/21 04:47:35;;;;;;;;;;;;;;;-144.99;100.00;52721.22;5059266;28;19974;-80
2021/12/21 04:50:01;;;;;;;;;;;;;;;-144.99;100.00;52741.63;5060098;28;19995;-80
2021/12/21 04:52:29;;;;;;;;;;;;;;;-144.99;100.00;52700.84;5059558;28;20443;-81
2021/12/21 04:54:56;;;;;;;;;;;;;;;-144.99;100.00;52696.78;5053823;28;20332;-79
2021/12/21 04:57:22;;;;;;;;;;;;;;;-144.99;100.00;52700.84;5056978;28;19982;-81
2021/12/21 04:59:49;;;;;;;;;;;;;;;-144.99;100.00;52698.81;5055424;28;20095;-79
2021/12/21 05:02:15;;;;;;;;;;;;;;;-144.99;100.00;52725.31;5058993;28;20470;-80
2021/12/21 05:04:41;;;;;;;;;;;;;;;-144.99;100.00;52692.69;5058244;28;19977;-78
2021/12/21 05:07:08;;;;;;;;;;;;;;;-144.99;100.00;52700.84;5061421;28;19978;-77
2021/12/21 05:09:42;;;;;;;;;;;;;;;-144.99;100.00;52713.09;5052097;28;20019;-80
2021/12/21 05:12:11;;;;;;;;;;;;;;;-144.99;100.00;52700.84;5055584;28;20411;-78
2021/12/21 05:14:37;;;;;;;;;;;;;;;-144.99;100.00;52680.47;5060898;28;19992;-78
2021/12/21 05:17:05;;;;;;;;;;;;;;;-144.99;100.00;52702.88;5056318;28;20535;-78
2021/12/21 05:19:32;;;;;;;;;;;;;;;-144.99;100.00;52656.00;5062349;28;20015;-79
2021/12/21 05:21:58;;;;;;;;;;;;;;;-144.99;100.00;52700.84;5064590;28;19985;-77
2021/12/21 05:24:25;;;;;;;;;;;;;;;-144.99;100.00;52717.16;5050129;28;19980;-78
2021/12/21 05:26:52;;;;;;;;;;;;;;;-144.99;100.00;52704.94;5050487;28;19982;-74
2021/12/21 05:29:19;;;;;;;;;;;;;;;-144.99;100.00;52709.00;5061913;28;20002;-75
2021/12/21 05:31:45;;;;;;;;;;;;;;;-144.99;100.00;52696.78;5053832;28;20409;-75
2021/12/21 05:34:12;;;;;;;;;;;;;;;-144.99;100.00;52709.00;5054853;28;20016;-75
2021/12/21 05:36:38;;;;;;;;;;;;;;;-144.99;100.00;52688.63;5060170;28;19973;-76
2021/12/21 05:39:13;;;;;;;;;;;;;;;-144.99;100.00;52700.84;5053422;28;20050;-74
2021/12/21 05:41:49;;;;;;;;;;;;;;;-144.99;100.00;52721.22;5054781;28;19985;-74
2021/12/21 05:44:18;;;;;;;;;;;;;;;-144.99;100.00;52713.09;5055067;28;19977;-76
2021/12/21 05:46:45;;;;;;;;;;;;;;;-144.99;100.00;52709.00;5055786;28;19973;-75
2021/12/21 05:49:11;;;;;;;;;;;;;;;-144.99;100.00;52704.94;5058157;28;20010;-77
2021/12/21 05:51:37;;;;;;;;;;;;;;;-144.99;100.00;52668.22;5056655;28;19977;-75
2021/12/21 05:54:04;;;;;;;;;;;;;;;-144.99;100.00;52696.78;5041533;28;19974;-77
2021/12/21 05:56:30;;;;;;;;;;;;;;;-144.99;100.00;52717.16;5058166;28;19981;-76
2021/12/21 05:58:57;;;;;;;;;;;;;;;-144.99;100.00;52668.22;5059164;28;19999;-75
2021/12/21 06:01:24;;;;;;;;;;;;;;;-144.99;100.00;52713.09;5058577;28;19996;-75
2021/12/21 06:03:51;;;;;;;;;;;;;;;-144.99;100.00;52711.03;5052205;28;19950;-74
2021/12/21 06:06:17;;;;;;;;;;;;;;;-144.99;100.00;52696.78;5056410;28;20435;-76
2021/12/21 06:08:46;;;;;;;;;;;;;;;-144.99;100.00;52704.94;5055368;28;19977;-77
2021/12/21 06:11:14;;;;;;;;;;;;;;;-144.99;100.00;52700.84;5060079;28;20020;-75
2021/12/21 06:14:00;;;;;;;;;;;;;;;-144.99;100.00;52715.13;5056333;28;19978;-77
2021/12/21 06:27:24;;;;;;;;;;;;;;;-144.99;100.00;52664.16;5049060;28;19977;-78
2021/12/21 06:29:50;;;;;;;;;;;;;;;-144.99;100.00;52692.69;5049746;28;20458;-75
2021/12/21 06:32:18;;;;;;;;;;;;;;;-144.99;100.00;52692.69;5052261;28;19993;-77
2021/12/21 06:34:45;;;;;;;;;;;;;;;-144.99;100.00;52721.22;5048159;28;19988;-78
2021/12/21 06:37:12;;;;;;;;;;;;;;;-144.99;100.00;52721.22;5045308;28;19988;-78
2021/12/21 06:39:38;;;;;;;;;;;;;;;-144.99;100.00;52729.38;5045538;28;19993;-77
2021/12/21 06:42:05;;;;;;;;;;;;;;;-144.99;100.00;52717.16;5057351;28;20280;-76
2021/12/21 06:44:33;;;;;;;;;;;;;;;-144.99;100.00;52664.16;5057257;28;19977;-78
2021/12/21 06:51:08;;;;;;;;;;;;;;;-144.99;100.00;52696.78;5059157;28;19977;-77
2021/12/21 06:52:40;;;;;;;;;;;;;;;-144.99;100.00;52684.53;5053862;28;20043;-78
2021/12/21 06:55:07;;;;;;;;;;;;;;;-144.99;100.00;52725.31;5059887;28;19991;-76
2021/12/21 06:57:34;;;;;;;;;;;;;;;-144.99;100.00;52711.03;5064176;28;19981;-78
2021/12/21 07:00:01;;;;;;;;;;;;;;;-144.99;100.00;52709.00;5059334;28;20055;-77
2021/12/21 07:02:28;;;;;;;;;;;;;;;-144.99;100.00;52704.94;5070253;28;20056;-77
2021/12/21 07:04:56;;;;;;;;;;;;;;;-144.99;100.00;52713.09;5069849;28;19977;-77
2021/12/21 07:07:23;;;;;;;;;;;;;;;-144.99;100.00;52684.53;5074006;28;19981;-79
2021/12/21 07:09:58;;;;;;;;;;;;;;;-144.99;100.00;52696.78;5083607;22;20431;-64
2021/12/21 07:17:48;;;;;;;;;;;;;;;-144.99;100.00;52692.69;5056627;28;19983;-64
2021/12/21 07:18:08;;;;;;;;;;;;;;;-144.99;100.00;52709.00;5046527;28;19976;-62
2021/12/21 07:20:36;;;;;;;;;;;;;;;-144.99;100.00;52706.97;5067307;28;19978;-63
2021/12/21 07:23:02;;;;;;;;;;;;;;;-144.99;100.00;52709.00;5076160;28;19984;-63
2021/12/21 07:25:29;;;;;;;;;;;;;;;-144.99;100.00;52713.09;5074569;28;19989;-63
2021/12/21 07:27:56;;;;;;;;;;;;;;;-144.99;100.00;52704.94;5078738;28;19988;-63
2021/12/21 07:30:22;;;;;;;;;;;;;;;-144.99;100.00;52684.53;5069424;28;19981;-63
2021/12/21 07:32:49;;;;;;;;;;;;;;;-144.99;100.00;52723.28;5050945;28;20364;-64
2021/12/21 07:35:16;;;;;;;;;;;;;;;-144.99;100.00;52700.84;5053223;28;20465;-64
2021/12/21 07:37:44;;;;;;;;;;;;;;;-144.99;100.00;52719.19;5051539;28;19985;-63
2021/12/21 07:40:11;;;;;;;;;;;;;;;-144.99;100.00;52704.94;5055149;28;19989;-63
2021/12/21 07:42:38;;;;;;;;;;;;;;;-144.99;100.00;52709.00;5043361;28;19973;-63
2021/12/21 07:45:04;;;;;;;;;;;;;;;-144.99;100.00;52668.22;5054810;28;20491;-63
2021/12/21 07:47:31;;;;;;;;;;;;;;;-144.99;100.00;52684.53;5053516;28;19989;-63
2021/12/21 07:49:58;;;;;;;;;;;;;;;-144.99;100.00;52696.78;5058951;28;20233;-63
2021/12/21 07:52:24;;;;;;;;;;;;;;;-144.99;100.00;52688.63;5052972;28;19980;-64
2021/12/21 07:54:52;;;;;;;;;;;;;;;-144.99;100.00;52731.44;5045523;28;19993;-63
2021/12/21 07:57:18;;;;;;;;;;;;;;;-144.99;100.00;52690.66;5056477;28;20000;-64
2021/12/21 07:59:45;;;;;;;;;;;;;;;-144.99;100.00;52664.16;5056434;28;19973;-63
2021/12/21 08:02:11;;;;;;;;;;;;;;;-144.99;100.00;52664.16;5055260;28;20000;-63
2021/12/21 08:04:39;;;;;;;;;;;;;;;-144.99;100.00;52696.78;5051376;28;19993;-64
2021/12/21 08:07:10;;;;;;;;;;;;;;;-144.99;100.00;52643.78;5054083;28;20039;-63
2021/12/21 08:09:40;;;;;;;;;;;;;;;-144.99;100.00;52692.69;5055214;28;19977;-68
2021/12/21 08:12:14;;;;;;;;;;;;;;;-144.99;100.00;52692.69;5050337;28;19989;-63
2021/12/21 08:14:40;;;;;;;;;;;;;;;-144.99;100.00;52651.94;5060763;28;20290;-63
2021/12/21 08:17:07;;;;;;;;;;;;;;;-144.99;100.00;52684.53;5060055;28;19977;-63
2021/12/21 08:19:33;;;;;;;;;;;;;;;-144.99;100.00;52700.84;5056207;28;19983;-65
2021/12/21 08:22:00;;;;;;;;;;;;;;;-144.99;100.00;52700.84;5058992;28;19988;-62
2021/12/21 08:24:26;;;;;;;;;;;;;;;-144.99;100.00;52692.69;5076518;28;19985;-63
2021/12/21 08:26:52;;;;;;;;;;;;;;;-144.99;100.00;52692.69;5059742;28;20272;-63
2021/12/21 08:29:20;;;;;;;;;;;;;;;-144.99;100.00;52696.78;5061333;28;20456;-63
2021/12/21 08:31:48;;;;;;;;;;;;;;;-144.99;100.00;52684.53;5051230;28;19980;-63
2021/12/21 08:34:15;;;;;;;;;;;;;;;-144.99;100.00;52690.66;5053156;28;20000;-64
2021/12/21 08:36:41;;;;;;;;;;;;;;;-144.99;100.00;52717.16;5060411;28;19977;-65
2021/12/21 08:39:08;;;;;;;;;;;;;;;-144.99;100.00;52700.84;5054949;28;19981;-62
2021/12/21 08:41:39;;;;;;;;;;;;;;;-144.99;100.00;52680.47;5052559;28;20103;-66
2021/12/21 08:44:05;;;;;;;;;;;;;;;-144.99;100.00;52680.47;5055750;28;20033;-63
2021/12/21 08:46:33;;;;;;;;;;;;;;;-144.99;100.00;52684.53;5063820;28;19977;-63
2021/12/21 08:49:00;;;;;;;;;;;;;;;-144.99;100.00;52676.38;5059304;28;20003;-63
2021/12/21 08:51:26;;;;;;;;;;;;;;;-144.99;100.00;52660.09;5062683;28;20363;-63
2021/12/21 08:53:52;;;;;;;;;;;;;;;-144.99;100.00;52692.69;5057605;28;20285;-62
2021/12/21 08:56:19;;;;;;;;;;;;;;;-144.99;100.00;52635.63;5064683;28;19981;-64
2021/12/21 08:58:45;;;;;;;;;;;;;;;-144.99;100.00;52660.09;5069774;28;19973;-64
2021/12/21 09:01:11;;;;;;;;;;;;;;;-144.99;100.00;52672.31;5062510;28;20004;-64
2021/12/21 09:03:39;;;;;;;;;;;;;;;-144.99;100.00;52688.63;5055856;28;20614;-64
2021/12/21 09:06:06;;;;;;;;;;;;;;;-144.99;100.00;52688.63;5063585;28;19981;-63
2021/12/21 09:08:32;;;;;;;;;;;;;;;-144.99;100.00;52664.16;5057647;28;20560;-64
2021/12/21 09:11:03;;;;;;;;;;;;;;;-144.99;100.00;52647.84;5055982;28;20071;-64
2021/12/21 09:13:30;;;;;;;;;;;;;;;-144.99;100.00;52672.31;5051494;28;19966;-64
2021/12/21 09:15:56;;;;;;;;;;;;;;;-144.99;100.00;52668.22;5059781;28;20725;-63
2021/12/21 09:18:22;;;;;;;;;;;;;;;-144.99;100.00;52664.16;5057360;28;20421;-63
2021/12/21 09:20:50;;;;;;;;;;;;;;;-144.99;100.00;52662.13;5052598;28;19996;-62
2021/12/21 09:23:17;;;;;;;;;;;;;;;-144.99;99.93;52676.38;5053034;28;19973;-65
2021/12/21 09:25:44;;;;;;;;;;;;;;;-144.99;99.43;52643.78;5059326;28;20442;-63
2021/12/21 09:28:10;;;;;;;;;;;;;;;-144.99;98.87;52668.22;5056269;28;19988;-65
2021/12/21 09:30:37;;;;;;;;;;;;;;;-144.99;97.52;52656.00;5058295;28;20356;-63
2021/12/21 09:33:04;;;;;;;;;;;;;;;-144.99;95.24;52627.47;5053066;28;20377;-63
2021/12/21 09:35:30;;;;;;;;;;;;;;;-144.99;91.99;52674.34;5051679;28;19998;-62
2021/12/21 09:37:58;;;;;;;;;;;;;;;-144.99;91.29;52627.47;5059448;28;20003;-63
2021/12/21 09:40:27;;;;;;;;;;;;;;;-144.99;89.70;52643.78;5063454;28;19973;-63
2021/12/21 09:42:54;;;;;;;;;;;;;;;-144.99;89.88;52643.78;5057236;28;19995;-63
2021/12/21 09:45:21;;;;;;;;;;;;;;;-144.99;89.79;52684.53;5055262;28;20353;-63
2021/12/21 09:47:49;;;;;;;;;;;;;;;-144.99;90.62;52676.38;5053865;28;20453;-62
2021/12/21 09:50:16;;;;;;;;;;;;;;;-144.99;90.99;52668.22;5059804;28;19981;-63
2021/12/21 09:52:43;;;;;;;;;;;;;;;-144.99;90.98;52625.44;5055175;28;20350;-64
2021/12/21 09:55:11;;;;;;;;;;;;;;;-144.99;90.96;52635.63;5052507;28;20001;-65
2021/12/21 09:57:38;;;;;;;;;;;;;;;-144.99;91.06;52639.69;5051301;28;20481;-68
2021/12/21 10:00:06;;;;;;;;;;;;;;;-144.99;89.88;52647.84;5052395;28;19973;-67
2021/12/21 10:02:34;;;;;;;;;;;;;;;-144.99;89.38;52668.22;5056023;28;20029;-67
2021/12/21 10:05:04;;;;;;;;;;;;;;;-144.99;89.02;52643.78;5052278;28;19999;-66
2021/12/21 10:07:30;;;;;;;;;;;;;;;-144.99;88.23;52656.00;5055283;28;19981;-68
2021/12/21 10:10:04;;;;;;;;;;;;;;;-144.99;87.60;52647.84;5051181;28;20003;-68
2021/12/21 10:12:34;;;;;;;;;;;;;;;-144.99;86.07;52603.00;5052735;28;19984;-68
2021/12/21 10:15:01;;;;;;;;;;;;;;;-144.99;86.23;52615.25;5049193;28;20036;-69
2021/12/21 10:17:31;;;;;;;;;;;;;;;-144.99;83.45;52643.78;5049273;28;19977;-69
2021/12/21 10:19:57;;;;;;;;;;;;;;;-144.99;79.81;52562.25;5047925;28;19970;-68
2021/12/21 10:22:24;;;;;;;;;;;;;;;-144.99;78.62;52521.47;5049269;28;19996;-68
2021/12/21 10:24:51;;;;;;;;;;;;;;;-144.99;73.18;52550.00;5047770;28;20000;-68
2021/12/21 10:27:19;;;;;;;;;;;;;;;-144.99;65.86;52517.41;5055068;28;20048;-68
2021/12/21 10:29:48;;;;;;;;;;;;;;;-144.99;60.10;52554.09;5047403;28;20051;-68
2021/12/21 10:32:18;;;;;;;;;;;;;;;-144.99;58.15;52492.94;5051584;28;19988;-68
2021/12/21 10:34:52;;;;;;;;;;;;;;;-144.99;55.39;52452.16;5050161;28;19993;-69
2021/12/21 10:37:23;;;;;;;;;;;;;;;-144.99;53.04;52450.13;5053568;28;19976;-70
2021/12/21 10:39:50;;;;;;;;;;;;;;;-144.99;50.35;52407.31;5052438;28;20409;-70
2021/12/21 10:42:16;;;;;;;;;;;;;;;-144.99;47.70;52431.78;5057340;28;20015;-71
2021/12/21 10:44:46;;;;;;;;;;;;;;;-144.99;46.10;52419.56;5056166;28;19993;-70
2021/12/21 10:47:13;;;;;;;;;;;;;;;-144.99;43.71;52374.72;5054636;28;20024;-70
2021/12/21 10:49:40;;;;;;;;;;;;;;;-144.99;42.80;52384.91;5050952;28;19988;-71
2021/12/21 10:52:07;;;;;;;;;;;;;;;-144.99;42.07;52382.88;5046849;28;20063;-71
2021/12/21 10:54:35;;;;;;;;;;;;;;;-144.99;41.31;52415.47;5053237;28;19997;-71
2021/12/21 10:57:04;;;;;;;;;;;;;;;-144.99;40.88;52364.53;5056675;28;19984;-71
2021/12/21 10:59:31;;;;;;;;;;;;;;;-144.99;40.02;52368.59;5060779;28;19998;-71
2021/12/21 11:02:06;;;;;;;;;;;;;;;-144.99;39.36;52366.56;5052663;28;20653;-71
2021/12/21 11:04:35;;;;;;;;;;;;;;;-144.99;39.10;52366.56;5056576;28;19992;-72
2021/12/21 11:07:18;;;;;;;;;;;;;;;-144.99;38.84;52391.03;5054495;28;19973;-71
2021/12/21 11:09:53;;;;;;;;;;;;;;;-144.99;38.52;52346.19;5050376;28;20574;-71
2021/12/21 11:12:19;;;;;;;;;;;;;;;-144.99;37.95;52386.94;5042572;28;19981;-72
2021/12/21 11:14:45;;;;;;;;;;;;;;;-144.99;37.39;52362.50;5048800;28;20481;-72
2021/12/21 11:17:14;;;;;;;;;;;;;;;-144.99;37.36;52368.59;5059536;28;19972;-72
2021/12/21 11:19:41;;;;;;;;;;;;;;;-144.99;37.04;52370.63;5051711;28;19981;-73
2021/12/21 11:22:08;;;;;;;;;;;;;;;-144.99;36.57;52354.34;5053258;28;19997;-73
2021/12/21 11:24:37;;;;;;;;;;;;;;;-144.99;36.23;52366.56;5054793;28;20520;-71
2021/12/21 11:27:04;;;;;;;;;;;;;;;-144.99;36.08;52370.63;5051418;28;19981;-71
2021/12/21 11:29:31;;;;;;;;;;;;;;;-144.99;35.86;52346.19;5056826;28;20004;-71
2021/12/21 11:31:58;;;;;;;;;;;;;;;-144.99;35.42;52342.09;5051301;28;20373;-71
2021/12/21 11:34:31;;;;;;;;;;;;;;;-144.99;35.40;52354.34;5048876;28;19997;-71
2021/12/21 11:39:42;;;;;;;;;;;;;;;-144.99;34.96;52338.03;5047545;28;20195;-72
2021/12/21 11:42:09;;;;;;;;;;;;;;;-144.99;34.54;52305.41;5053316;28;19998;-71
2021/12/21 11:44:41;;;;;;;;;;;;;;;-144.99;34.67;52333.94;5044758;28;20020;-71
2021/12/21 11:47:09;;;;;;;;;;;;;;;-144.99;34.54;52376.75;5050723;28;19985;-71
2021/12/21 11:49:44;;;;;;;;;;;;;;;-144.99;34.42;52317.66;5053788;28;19977;-72
2021/12/21 11:52:13;;;;;;;;;;;;;;;-144.99;34.22;52378.78;5051922;28;20053;-71
2021/12/21 11:54:47;;;;;;;;;;;;;;;-144.99;34.26;52321.72;5058406;28;19992;-71
2021/12/21 11:57:14;;;;;;;;;;;;;;;-144.99;33.33;52315.59;5059691;28;19987;-72
2021/12/21 11:59:40;;;;;;;;;;;;;;;-144.99;33.17;52346.19;5059775;28;20269;-72
2021/12/21 12:02:07;;;;;;;;;;;;;;;-144.99;33.08;52293.19;5059589;28;20008;-72
2021/12/21 12:04:35;;;;;;;;;;;;;;;-144.99;33.43;52331.91;5055785;28;20251;-72
2021/12/21 12:07:13;;;;;;;;;;;;;;;-144.99;33.65;52329.88;5055551;28;19957;-72
2021/12/21 12:09:40;;;;;;;;;;;;;;;-144.99;33.12;52333.94;5049460;28;20038;-72
2021/12/21 12:12:07;;;;;;;;;;;;;;;-144.99;32.76;52321.72;5056285;28;19985;-73
2021/12/21 12:14:36;;;;;;;;;;;;;;;-144.99;32.58;52321.72;5054188;28;20003;-72
2021/12/21 12:17:06;;;;;;;;;;;;;;;-144.99;32.54;52309.50;5055990;28;20426;-72
2021/12/21 12:19:33;;;;;;;;;;;;;;;-144.99;32.79;52366.56;5049025;28;19977;-72
2021/12/21 12:22:00;;;;;;;;;;;;;;;-144.99;32.74;52358.41;5053750;28;20015;-72
2021/12/21 12:24:34;;;;;;;;;;;;;;;-144.99;32.87;52342.09;5062188;28;20496;-72
2021/12/21 12:27:01;;;;;;;;;;;;;;;-144.99;32.41;52358.41;5054868;28;20421;-72
2021/12/21 12:29:28;;;;;;;;;;;;;;;-144.99;32.68;52338.03;5059611;28;19973;-73
2021/12/21 12:31:59;;;;;;;;;;;;;;;-144.99;32.73;52370.63;5050596;28;19987;-72
2021/12/21 12:34:26;;;;;;;;;;;;;;;-144.99;32.49;52321.72;5058004;28;19993;-72
2021/12/21 12:36:54;;;;;;;;;;;;;;;-144.99;32.22;52313.56;5055567;28;20396;-72
2021/12/21 12:39:33;;;;;;;;;;;;;;;-144.99;32.21;52331.91;5046174;28;19981;-72
2021/12/21 12:42:08;;;;;;;;;;;;;;;-144.99;32.25;52366.56;5053267;28;19977;-72
2021/12/21 12:44:35;;;;;;;;;;;;;;;-144.99;32.55;52395.09;5056033;28;20089;-72
2021/12/21 12:47:12;;;;;;;;;;;;;;;-144.99;32.41;52411.41;5049568;28;19982;-72
2021/12/21 12:49:42;;;;;;;;;;;;;;;-144.99;32.29;52382.88;5059063;28;19972;-72
2021/12/21 12:52:11;;;;;;;;;;;;;;;-144.99;32.44;52382.88;5052385;28;19994;-72
2021/12/21 12:54:51;;;;;;;;;;;;;;;-144.99;32.52;52370.63;5048088;28;20091;-72
2021/12/21 12:57:24;;;;;;;;;;;;;;;-144.99;32.20;52362.50;5050751;28;19980;-72
2021/12/21 12:59:52;;;;;;;;;;;;;;;-144.99;32.15;52358.41;5056976;28;19984;-73
2021/12/21 13:02:18;;;;;;;;;;;;;;;-144.99;32.06;52346.19;5044029;28;20001;-70